Time;durP1;ratioP1;P1;durP2;ratioP2;P2;SDS_P1;SDS_P2;PMS_P1;PMS_P2;Temp;Humidity;BMP_temperature;BMP_pressure;BME280_temperature;BME280_humidity;BME280_pressure;Samples;Min_cycle;Max_cycle;Signal;HPM_P1;HPM_P2
2022/03/09 00:02:22;;;;;;;39.10;29.00;;;;;;;-2.44;82.21;92667.94;5096743;28;20289;-83
2022/03/09 00:04:47;;;;;;;48.47;30.93;;;;;;;-2.32;81.03;92649.25;5095557;28;20185;-82
2022/03/09 00:07:13;;;;;;;48.03;33.27;;;;;;;-2.34;80.32;92679.34;5088340;28;20244;-84
2022/03/09 00:09:38;;;;;;;40.20;28.93;;;;;;;-3.13;80.83;92582.56;5096416;28;20223;-83
2022/03/09 00:12:04;;;;;;;40.07;27.47;;;;;;;-3.11;82.88;92675.84;5094917;28;20251;-82
2022/03/09 00:14:30;;;;;;;41.57;29.03;;;;;;;-3.11;82.37;92647.00;5095027;28;20184;-83
2022/03/09 00:16:55;;;;;;;43.37;30.87;;;;;;;-3.07;82.98;92631.09;5096135;28;20185;-84
2022/03/09 00:19:21;;;;;;;40.97;28.07;;;;;;;-2.69;82.37;92633.81;5092189;28;20191;-84
2022/03/09 00:21:46;;;;;;;46.03;31.40;;;;;;;-2.55;82.05;92661.69;5098296;28;20248;-84
2022/03/09 00:24:14;;;;;;;49.60;32.43;;;;;;;-3.20;81.64;92618.31;5092703;28;20220;-83
2022/03/09 00:26:40;;;;;;;46.27;30.33;;;;;;;-2.51;80.94;92660.31;5097799;28;20204;-83
2022/03/09 00:29:05;;;;;;;44.80;29.80;;;;;;;-2.53;81.60;92664.84;5096217;28;20219;-84
2022/03/09 00:31:31;;;;;;;43.80;31.27;;;;;;;-2.96;81.95;92610.06;5095906;28;20189;-84
2022/03/09 00:33:56;;;;;;;40.73;29.73;;;;;;;-3.23;82.26;92585.53;5078262;28;20217;-83
2022/03/09 00:36:22;;;;;;;43.27;30.00;;;;;;;-2.93;82.67;92663.28;5095711;28;20172;-83
2022/03/09 00:38:47;;;;;;;42.73;28.57;;;;;;;-3.41;82.04;92595.53;5096906;28;20303;-83
2022/03/09 00:41:14;;;;;;;39.50;30.00;;;;;;;-2.94;82.38;92656.59;5096665;28;20183;-83
2022/03/09 00:43:39;;;;;;;40.10;28.97;;;;;;;-3.22;83.26;92596.53;5095887;28;20243;-83
2022/03/09 00:46:05;;;;;;;45.50;32.40;;;;;;;-2.89;82.62;92620.25;5098806;28;20279;-83
2022/03/09 00:48:30;;;;;;;42.60;28.43;;;;;;;-2.77;81.78;92614.34;5095080;28;20216;-83
2022/03/09 00:50:56;;;;;;;42.07;29.97;;;;;;;-3.12;81.87;92595.13;5095162;28;21100;-83
2022/03/09 00:53:21;;;;;;;39.50;28.03;;;;;;;-2.83;80.98;92620.25;5096981;28;20359;-83
2022/03/09 00:55:46;;;;;;;40.63;30.03;;;;;;;-3.35;81.93;92567.44;5076797;28;20184;-83
2022/03/09 00:58:12;;;;;;;43.50;27.50;;;;;;;-3.05;82.12;92603.56;5095199;28;20286;-83
2022/03/09 01:00:37;;;;;;;41.10;27.47;;;;;;;-2.92;81.31;92611.22;5096971;28;20196;-83
2022/03/09 01:03:03;;;;;;;37.43;28.17;;;;;;;-2.66;81.18;92615.53;5097319;28;20222;-83
2022/03/09 01:05:29;;;;;;;45.97;29.60;;;;;;;-2.65;80.95;92612.78;5079652;28;20180;-83
2022/03/09 01:07:54;;;;;;;42.70;29.97;;;;;;;-3.07;82.40;92585.13;5076896;28;20229;-83
2022/03/09 01:10:20;;;;;;;37.60;26.67;;;;;;;-2.94;81.15;92630.28;5099317;28;20295;-83
2022/03/09 01:12:46;;;;;;;42.33;28.90;;;;;;;-3.57;82.39;92567.84;5097245;28;20227;-83
2022/03/09 01:15:12;;;;;;;42.30;28.43;;;;;;;-3.08;82.56;92634.59;5079610;28;20200;-83
2022/03/09 01:17:37;;;;;;;39.57;28.90;;;;;;;-3.17;83.29;92629.88;5098452;28;20223;-83
2022/03/09 01:20:03;;;;;;;41.23;28.93;;;;;;;-3.59;82.57;92551.94;5093526;28;20191;-82
2022/03/09 01:22:29;;;;;;;48.77;32.27;;;;;;;-2.86;83.75;92630.88;5095594;28;20232;-83
2022/03/09 01:24:54;;;;;;;41.00;29.60;;;;;;;-3.20;83.11;92594.53;5093961;28;20181;-83
2022/03/09 01:27:20;;;;;;;38.60;29.00;;;;;;;-2.96;81.67;92624.59;5093846;28;20228;-83
2022/03/09 01:29:45;;;;;;;39.33;28.60;;;;;;;-3.28;82.17;92562.34;5097342;28;20238;-82
2022/03/09 01:32:11;;;;;;;39.23;28.50;;;;;;;-2.86;81.76;92628.31;5090976;28;20216;-82
2022/03/09 01:34:36;;;;;;;37.20;27.10;;;;;;;-3.50;81.76;92543.09;5098731;28;20188;-82
2022/03/09 01:37:02;;;;;;;39.23;27.80;;;;;;;-3.65;80.87;92555.28;5096533;28;20193;-82
2022/03/09 01:39:27;;;;;;;41.00;27.93;;;;;;;-3.46;80.50;92574.91;5091652;28;20184;-82
2022/03/09 01:41:53;;;;;;;39.97;28.47;;;;;;;-3.06;80.87;92627.53;5096530;28;20218;-82
2022/03/09 01:44:21;;;;;;;44.47;28.23;;;;;;;-3.17;80.75;92630.66;5074484;28;20208;-83
2022/03/09 01:46:52;;;;;;;36.97;27.13;;;;;;;-3.87;80.68;92485.03;5095269;28;20221;-83
2022/03/09 01:49:19;;;;;;;44.77;30.17;;;;;;;-2.81;79.97;92627.72;5092626;28;20278;-83
2022/03/09 01:51:46;;;;;;;40.00;28.63;;;;;;;-2.69;80.33;92628.69;5098480;28;20242;-83
2022/03/09 01:54:13;;;;;;;41.50;29.27;;;;;;;-2.68;79.53;92633.63;5099233;28;20213;-83
2022/03/09 01:56:39;;;;;;;42.73;28.60;;;;;;;-2.70;79.84;92619.44;5094750;28;20223;-84
2022/03/09 01:59:10;;;;;;;41.93;28.90;;;;;;;-2.89;79.41;92595.50;5096862;28;20235;-83
2022/03/09 02:01:36;;;;;;;41.50;29.90;;;;;;;-3.25;80.17;92568.84;5098181;28;20176;-83
2022/03/09 02:04:03;;;;;;;43.20;29.63;;;;;;;-2.87;80.40;92631.06;5097679;28;20242;-83
2022/03/09 02:06:31;;;;;;;42.33;28.83;;;;;;;-3.23;80.81;92567.66;5097265;28;20792;-83
2022/03/09 02:11:42;;;;;;;38.37;28.17;;;;;;;-2.52;79.52;92625.50;5096893;28;20195;-83
2022/03/09 02:14:33;;;;;;;45.07;29.43;;;;;;;-2.38;79.07;92621.19;5095325;28;20221;-83
2022/03/09 02:17:01;;;;;;;39.90;29.47;;;;;;;-2.43;79.18;92620.97;5093762;28;20196;-83
2022/03/09 02:19:27;;;;;;;40.33;29.13;;;;;;;-2.92;78.07;92560.16;5096067;28;20185;-84
2022/03/09 02:21:58;;;;;;;44.30;30.07;;;;;;;-3.38;78.97;92579.84;5095661;28;20192;-84
2022/03/09 02:24:25;;;;;;;43.33;30.37;;;;;;;-2.86;80.10;92612.22;5096328;28;20216;-84
2022/03/09 02:26:50;;;;;;;42.80;30.03;;;;;;;-2.73;79.89;92623.19;5097922;28;20199;-83
2022/03/09 02:29:16;;;;;;;45.40;30.53;;;;;;;-2.96;80.00;92551.34;5095497;28;20235;-83
2022/03/09 02:31:41;;;;;;;42.20;30.93;;;;;;;-2.57;78.48;92558.91;5097812;28;20197;-83
2022/03/09 02:34:07;;;;;;;40.57;29.63;;;;;;;-2.71;77.65;92616.13;5100098;28;20262;-83
2022/03/09 02:36:32;;;;;;;41.20;28.60;;;;;;;-2.57;78.39;92615.13;5096232;28;20253;-78
2022/03/09 02:38:58;;;;;;;51.90;30.83;;;;;;;-2.90;80.04;92560.75;5101028;28;20231;-83
2022/03/09 02:41:24;;;;;;;42.60;31.53;;;;;;;-2.67;78.26;92578.97;5098460;28;20199;-83
2022/03/09 02:43:49;;;;;;;43.87;30.90;;;;;;;-2.44;78.55;92616.84;5098872;28;20231;-83
2022/03/09 02:46:15;;;;;;;51.60;34.00;;;;;;;-2.96;79.77;92597.31;5097594;28;20721;-83
2022/03/09 02:48:40;;;;;;;50.37;33.10;;;;;;;-3.21;80.69;92573.34;5080509;28;20744;-83
2022/03/09 02:51:06;;;;;;;45.33;30.87;;;;;;;-2.84;80.36;92582.94;5101986;28;20220;-83
2022/03/09 02:53:31;;;;;;;43.83;31.37;;;;;;;-2.62;78.56;92558.72;5098184;28;20227;-82
2022/03/09 02:55:57;;;;;;;44.37;31.80;;;;;;;-2.35;77.81;92572.97;5097384;28;20277;-83
2022/03/09 02:58:22;;;;;;;39.87;29.27;;;;;;;-2.14;77.25;92618.72;5099190;28;20220;-83
2022/03/09 03:00:47;;;;;;;42.57;31.00;;;;;;;-2.60;77.07;92601.97;5096433;28;20207;-83
2022/03/09 03:03:13;;;;;;;42.93;30.13;;;;;;;-2.19;77.41;92626.22;5098093;28;20224;-83
2022/03/09 03:05:38;;;;;;;40.77;28.90;;;;;;;-3.24;77.27;92527.81;5096557;28;20196;-83
2022/03/09 03:08:04;;;;;;;41.87;28.87;;;;;;;-2.52;77.85;92602.50;5098484;28;20216;-84
2022/03/09 03:10:29;;;;;;;39.40;28.50;;;;;;;-2.93;78.13;92543.28;5098706;28;20252;-83
2022/03/09 03:12:55;;;;;;;42.23;29.77;;;;;;;-2.62;78.40;92626.91;5095205;28;20215;-83
2022/03/09 03:15:20;;;;;;;46.50;30.50;;;;;;;-3.67;79.03;92527.41;5097722;28;20196;-83
2022/03/09 03:17:46;;;;;;;46.63;31.90;;;;;;;-3.29;81.23;92576.09;5097589;28;20235;-83
2022/03/09 03:20:11;;;;;;;44.50;31.43;;;;;;;-2.86;79.63;92613.00;5099258;28;20195;-83
2022/03/09 03:22:37;;;;;;;41.50;30.00;;;;;;;-2.96;78.22;92558.22;5099535;28;20253;-83
2022/03/09 03:25:03;;;;;;;45.97;31.97;;;;;;;-2.50;79.40;92628.66;5096583;28;20197;-83
2022/03/09 03:27:28;;;;;;;48.37;30.70;;;;;;;-2.67;77.72;92588.41;5100844;28;20228;-83
2022/03/09 03:29:53;;;;;;;48.23;31.33;;;;;;;-2.59;77.74;92629.06;5100680;28;20237;-83
2022/03/09 03:32:19;;;;;;;41.00;30.43;;;;;;;-3.64;77.77;92495.63;5095621;28;20221;-83
2022/03/09 03:34:44;;;;;;;40.80;29.33;;;;;;;-3.23;78.06;92615.34;5098912;28;20184;-83
2022/03/09 03:37:10;;;;;;;42.10;30.67;;;;;;;-3.08;78.64;92634.59;5094340;28;20192;-83
2022/03/09 03:39:35;;;;;;;40.80;29.93;;;;;;;-3.23;78.09;92584.72;5099401;28;20180;-83
2022/03/09 03:42:01;;;;;;;39.13;27.93;;;;;;;-3.56;79.05;92549.00;5099691;28;20189;-83
2022/03/09 03:44:27;;;;;;;43.03;28.47;;;;;;;-3.20;79.08;92627.72;5079756;28;20198;-83
2022/03/09 03:46:52;;;;;;;41.67;29.10;;;;;;;-3.76;79.05;92550.75;5098843;28;20268;-83
2022/03/09 03:49:18;;;;;;;41.93;29.03;;;;;;;-3.31;79.19;92588.25;5093918;28;20217;-83
2022/03/09 03:51:43;;;;;;;40.87;29.40;;;;;;;-3.75;79.58;92606.66;5099929;28;20180;-83
2022/03/09 03:54:10;;;;;;;43.37;29.87;;;;;;;-3.72;79.48;92593.50;5097353;28;20220;-83
2022/03/09 03:56:36;;;;;;;40.27;29.17;;;;;;;-3.62;79.31;92613.53;5095958;28;20192;-82
2022/03/09 03:59:01;;;;;;;38.40;26.90;;;;;;;-3.53;79.32;92625.13;5099728;28;20232;-83
2022/03/09 04:01:27;;;;;;;45.53;28.57;;;;;;;-3.82;79.28;92569.38;5095067;28;20215;-83
2022/03/09 04:03:52;;;;;;;44.07;28.50;;;;;;;-4.51;78.92;92482.19;5099775;28;20301;-83
2022/03/09 04:06:18;;;;;;;43.43;29.23;;;;;;;-3.60;78.58;92589.44;5077843;28;20172;-83
2022/03/09 04:08:43;;;;;;;39.77;29.17;;;;;;;-3.62;78.55;92600.78;5094609;28;20227;-83
2022/03/09 04:11:09;;;;;;;42.77;29.67;;;;;;;-3.83;77.93;92586.44;5096770;28;20210;-83
2022/03/09 04:13:34;;;;;;;38.63;25.97;;;;;;;-3.93;78.51;92608.19;5092600;28;20220;-84
2022/03/09 04:16:00;;;;;;;39.20;26.67;;;;;;;-3.85;78.00;92606.25;5095806;28;20188;-84
2022/03/09 04:18:25;;;;;;;40.57;27.60;;;;;;;-3.95;78.45;92565.03;5096787;28;20239;-83
2022/03/09 04:20:51;;;;;;;42.63;28.10;;;;;;;-3.58;77.83;92604.53;5093315;28;20200;-84
2022/03/09 04:23:16;;;;;;;38.50;28.03;;;;;;;-3.70;77.87;92604.31;5095347;28;20236;-84
2022/03/09 04:25:42;;;;;;;38.27;27.37;;;;;;;-3.33;77.85;92631.03;5094516;28;20199;-77
2022/03/09 04:28:07;;;;;;;41.57;29.37;;;;;;;-3.77;78.19;92612.94;5096558;28;20229;-78
2022/03/09 04:30:33;;;;;;;42.60;29.20;;;;;;;-3.54;78.56;92628.66;5092991;28;20184;-78
2022/03/09 04:32:58;;;;;;;40.43;27.77;;;;;;;-3.28;78.23;92633.81;5091083;28;20252;-77
2022/03/09 04:35:24;;;;;;;41.87;28.73;;;;;;;-3.40;78.00;92620.06;5095555;28;20177;-77
2022/03/09 04:37:50;;;;;;;42.97;28.43;;;;;;;-3.19;78.38;92630.06;5092847;28;20220;-77
2022/03/09 04:40:16;;;;;;;39.73;28.37;;;;;;;-3.67;77.55;92598.81;5097903;28;22001;-77
2022/03/09 04:42:42;;;;;;;37.77;28.00;;;;;;;-3.45;77.71;92617.28;5093814;28;20288;-77
2022/03/09 04:45:08;;;;;;;41.83;29.60;;;;;;;-3.80;79.15;92618.41;5096217;28;20193;-84
2022/03/09 04:47:34;;;;;;;42.80;29.00;;;;;;;-4.05;79.73;92559.53;5094640;28;20222;-87
2022/03/09 04:50:00;;;;;;;49.83;30.47;;;;;;;-3.95;81.15;92567.59;5089306;28;20275;-77
2022/03/09 04:52:25;;;;;;;40.63;27.43;;;;;;;-3.45;77.21;92635.16;5091751;28;20233;-75
2022/03/09 04:54:50;;;;;;;41.93;28.13;;;;;;;-3.37;77.21;92640.09;5094212;28;20200;-79
2022/03/09 04:57:16;;;;;;;40.47;29.77;;;;;;;-3.10;76.60;92610.25;5094224;28;20283;-84
2022/03/09 04:59:41;;;;;;;40.10;28.83;;;;;;;-3.31;76.71;92634.19;5091296;28;20235;-80
2022/03/09 05:02:07;;;;;;;41.23;30.43;;;;;;;-3.62;78.15;92611.78;5093191;28;20224;-78
2022/03/09 05:04:32;;;;;;;44.07;30.97;;;;;;;-3.62;78.34;92611.78;5095022;28;20188;-80
2022/03/09 05:06:58;;;;;;;43.40;30.33;;;;;;;-3.48;79.23;92636.34;5089839;28;20233;-78
2022/03/09 05:09:23;;;;;;;40.17;28.90;;;;;;;-3.44;79.26;92637.50;5095112;28;20219;-79
2022/03/09 05:11:50;;;;;;;35.27;26.80;;;;;;;-3.37;79.56;92630.66;5091401;28;20208;-80
2022/03/09 05:14:15;;;;;;;40.10;27.23;;;;;;;-3.29;79.32;92642.44;5092829;28;20217;-82
2022/03/09 05:16:41;;;;;;;40.03;29.57;;;;;;;-3.31;79.12;92631.66;5091462;28;20199;-87
2022/03/09 05:19:06;;;;;;;40.70;28.73;;;;;;;-3.22;78.81;92612.59;5093689;28;20263;-86
2022/03/09 05:21:32;;;;;;;41.97;29.33;;;;;;;-3.18;76.82;92608.69;5095951;28;20218;-88
2022/03/09 05:23:57;;;;;;;40.97;28.37;;;;;;;-3.31;77.28;92629.88;5093219;28;20223;-87
2022/03/09 05:26:23;;;;;;;41.67;28.83;;;;;;;-3.19;77.22;92640.28;5099641;28;20188;-82
2022/03/09 05:28:48;;;;;;;42.73;28.70;;;;;;;-3.31;76.90;92611.22;5093487;28;20663;-80
2022/03/09 05:31:16;;;;;;;43.70;28.10;;;;;;;-2.73;78.90;92653.06;5095525;28;20199;-79
2022/03/09 05:33:42;;;;;;;44.33;29.77;;;;;;;-2.91;76.85;92671.53;5088074;28;20251;-79
2022/03/09 05:36:07;;;;;;;42.67;30.40;;;;;;;-3.01;77.85;92670.34;5094561;28;20205;-78
2022/03/09 05:38:33;;;;;;;42.83;30.03;;;;;;;-2.69;76.56;92669.56;5094087;28;20228;-87
2022/03/09 05:40:58;;;;;;;42.37;29.87;;;;;;;-2.63;76.24;92649.09;5094055;28;20187;-86
2022/03/09 05:43:24;;;;;;;41.10;31.53;;;;;;;-2.65;76.00;92645.19;5095934;28;20227;-86
2022/03/09 05:45:49;;;;;;;40.03;29.33;;;;;;;-3.46;75.49;92611.44;5086611;28;20196;-87
2022/03/09 05:48:15;;;;;;;45.33;29.97;;;;;;;-3.16;75.97;92644.22;5092810;28;20216;-80
2022/03/09 05:50:40;;;;;;;39.83;30.57;;;;;;;-2.93;76.13;92680.38;5091356;28;20195;-82
2022/03/09 05:53:06;;;;;;;42.33;29.43;;;;;;;-3.18;77.03;92593.38;5091391;28;20223;-88
2022/03/09 05:55:31;;;;;;;42.53;30.40;;;;;;;-3.83;75.83;92515.03;5092246;28;20202;-88
2022/03/09 05:57:56;;;;;;;43.23;30.33;;;;;;;-3.13;75.33;92646.38;5088833;28;20224;-85
2022/03/09 06:00:22;;;;;;;43.20;31.03;;;;;;;-2.86;75.30;92628.31;5089248;28;20164;-85
2022/03/09 06:02:47;;;;;;;40.30;29.17;;;;;;;-2.23;73.96;92681.31;5089296;28;20223;-85
2022/03/09 06:05:13;;;;;;;42.37;29.60;;;;;;;-2.74;74.00;92672.69;5096683;28;20188;-84
2022/03/09 06:07:38;;;;;;;43.17;30.47;;;;;;;-2.46;74.25;92655.38;5099830;28;20236;-83
2022/03/09 06:10:04;;;;;;;40.60;29.47;;;;;;;-2.20;73.93;92693.69;5098563;28;20202;-85
2022/03/09 06:12:30;;;;;;;39.27;30.50;;;;;;;-2.26;72.56;92674.03;5096149;28;20236;-82
2022/03/09 06:14:55;;;;;;;41.37;31.23;;;;;;;-2.53;73.35;92681.91;5095900;28;20188;-81
2022/03/09 06:17:21;;;;;;;44.03;29.30;;;;;;;-2.36;73.36;92675.41;5100316;28;20258;-83
2022/03/09 06:19:47;;;;;;;42.47;29.87;;;;;;;-2.23;73.29;92667.72;5098458;28;20250;-82
2022/03/09 06:22:12;;;;;;;43.87;30.50;;;;;;;-1.94;73.27;92695.38;5096265;28;20198;-82
2022/03/09 06:24:37;;;;;;;43.80;32.80;;;;;;;-1.84;72.09;92685.50;5096944;28;20193;-83
2022/03/09 06:27:04;;;;;;;44.00;29.57;;;;;;;-1.67;70.69;92691.75;5096082;28;20205;-82
2022/03/09 06:29:30;;;;;;;43.93;30.90;;;;;;;-2.14;71.64;92657.09;5097436;28;20218;-86
2022/03/09 06:31:55;;;;;;;43.73;29.67;;;;;;;-1.70;70.29;92698.03;5097651;28;20196;-85
2022/03/09 06:34:21;;;;;;;43.00;31.90;;;;;;;-2.27;71.87;92681.88;5099964;28;20210;-87
2022/03/09 06:36:47;;;;;;;39.03;28.87;;;;;;;-1.89;71.01;92693.81;5097444;28;20204;-86
2022/03/09 06:39:13;;;;;;;36.47;28.17;;;;;;;-2.31;71.92;92704.50;5100867;28;20243;-83
2022/03/09 06:41:43;;;;;;;39.10;27.27;;;;;;;-1.67;70.49;92702.75;5094573;28;20196;-83
2022/03/09 06:44:09;;;;;;;41.17;29.47;;;;;;;-2.22;70.22;92653.94;5096438;28;20834;-84
2022/03/09 06:46:34;;;;;;;36.57;28.70;;;;;;;-1.82;69.77;92709.91;5096191;28;20196;-85
2022/03/09 06:49:02;;;;;;;36.90;28.60;;;;;;;-1.49;70.01;92707.22;5096425;28;20231;-87
2022/03/09 06:51:28;;;;;;;39.17;29.33;;;;;;;-1.28;69.11;92713.81;5098004;28;20200;-86
2022/03/09 06:53:53;;;;;;;37.47;26.30;;;;;;;-1.17;68.89;92718.28;5094964;28;20228;-86
2022/03/09 06:56:19;;;;;;;37.20;27.93;;;;;;;-1.49;68.63;92711.56;5101522;28;20184;-86
2022/03/09 06:58:45;;;;;;;35.50;27.27;;;;;;;-1.65;67.10;92659.06;5096282;28;20228;-85
2022/03/09 07:01:11;;;;;;;35.33;28.63;;;;;;;-1.72;68.39;92648.88;5100995;28;20267;-84
2022/03/09 07:03:37;;;;;;;37.00;28.13;;;;;;;-1.39;69.42;92706.78;5096581;28;21205;-88
2022/03/09 07:06:02;;;;;;;39.50;28.83;;;;;;;-1.24;69.19;92723.44;5096782;28;20693;-86
2022/03/09 07:08:28;;;;;;;39.00;29.40;;;;;;;-0.98;67.05;92691.78;5098501;28;20220;-86
2022/03/09 07:10:54;;;;;;;38.70;27.10;;;;;;;-1.26;66.80;92694.69;5097782;28;20173;-84
2022/03/09 07:13:19;;;;;;;38.00;28.83;;;;;;;-1.16;68.01;92712.16;5098759;28;20235;-87
2022/03/09 07:15:45;;;;;;;38.30;29.10;;;;;;;-0.54;67.74;92719.84;5094934;28;20208;-88
2022/03/09 07:18:10;;;;;;;36.53;28.70;;;;;;;-0.75;65.16;92658.69;5094319;28;20235;-86
2022/03/09 07:20:36;;;;;;;34.30;26.60;;;;;;;-0.14;65.04;92710.84;5088882;28;20189;-84
2022/03/09 07:23:01;;;;;;;37.83;28.47;;;;;;;-0.69;66.01;92662.97;5096233;28;20307;-89
2022/03/09 07:25:27;;;;;;;34.93;26.57;;;;;;;-0.26;64.57;92659.44;5095991;28;20180;-84
2022/03/09 07:27:52;;;;;;;47.53;34.20;;;;;;;0.59;63.70;92717.53;5094271;28;20252;-83
2022/03/09 07:30:18;;;;;;;37.87;28.87;;;;;;;0.30;63.46;92669.50;5099615;28;20248;-86
2022/03/09 07:32:43;;;;;;;40.80;28.47;;;;;;;1.35;61.26;92713.34;5097111;28;20215;-87
2022/03/09 07:35:10;;;;;;;35.53;28.47;;;;;;;1.37;60.15;92721.63;5097606;28;20406;-82
2022/03/09 07:37:36;;;;;;;35.03;26.30;;;;;;;0.82;59.93;92717.66;5094085;28;20224;-85
2022/03/09 07:40:04;;;;;;;28.47;25.30;;;;;;;0.54;61.04;92688.38;5097450;28;20211;-81
2022/03/09 07:42:29;;;;;;;32.67;25.40;;;;;;;0.50;61.61;92708.56;5094760;28;20254;-84
2022/03/09 07:44:55;;;;;;;31.93;26.93;;;;;;;0.77;60.50;92693.59;5095761;28;20256;-84
2022/03/09 07:47:21;;;;;;;33.63;27.77;;;;;;;0.87;60.37;92719.59;5078133;28;20248;-87
2022/03/09 07:49:46;;;;;;;35.10;27.13;;;;;;;0.94;59.83;92715.91;5094310;28;20207;-82
2022/03/09 07:52:11;;;;;;;31.80;28.27;;;;;;;1.05;58.90;92697.19;5095690;28;20251;-87
2022/03/09 07:54:37;;;;;;;32.70;25.33;;;;;;;1.21;58.58;92711.22;5092967;28;20188;-85
2022/03/09 07:57:03;;;;;;;33.13;27.00;;;;;;;1.11;59.28;92711.72;5095878;28;20196;-86
2022/03/09 07:59:29;;;;;;;36.17;28.03;;;;;;;1.23;57.51;92697.13;5099838;28;20189;-85
2022/03/09 08:01:54;;;;;;;34.03;27.43;;;;;;;0.97;59.25;92653.81;5079227;28;20200;-86
2022/03/09 08:04:21;;;;;;;38.20;27.67;;;;;;;0.59;61.74;92679.00;5098431;28;20188;-87
2022/03/09 08:06:51;;;;;;;38.60;28.00;;;;;;;1.13;60.27;92691.75;5093045;28;20224;-87
2022/03/09 08:09:17;;;;;;;35.43;27.63;;;;;;;0.82;60.17;92686.84;5093994;28;20225;-87
2022/03/09 08:11:43;;;;;;;34.53;25.93;;;;;;;0.66;60.95;92702.84;5094217;28;20195;-84
2022/03/09 08:14:09;;;;;;;38.67;28.27;;;;;;;0.76;59.17;92715.19;5094661;28;20292;-83
2022/03/09 08:16:34;;;;;;;30.90;25.73;;;;;;;0.45;58.39;92643.47;5094006;28;20198;-84
2022/03/09 08:19:00;;;;;;;33.53;27.27;;;;;;;1.11;58.20;92686.03;5092939;28;20248;-82
2022/03/09 08:21:25;;;;;;;35.17;26.47;;;;;;;1.18;58.06;92673.09;5098297;28;20204;-83
2022/03/09 08:23:51;;;;;;;42.93;26.37;;;;;;;1.36;58.08;92709.78;5094182;28;20236;-84
2022/03/09 08:26:16;;;;;;;31.77;26.63;;;;;;;1.29;59.78;92701.38;5097309;28;20260;-86
2022/03/09 08:28:42;;;;;;;36.83;28.33;;;;;;;0.92;60.14;92710.22;5077763;28;20604;-84
2022/03/09 08:31:08;;;;;;;47.10;28.50;;;;;;;1.08;58.06;92696.75;5096691;28;20215;-84
2022/03/09 08:33:33;;;;;;;34.73;27.83;;;;;;;1.19;58.97;92654.88;5076462;28;20228;-84
2022/03/09 08:35:59;;;;;;;38.40;29.90;;;;;;;1.41;57.90;92681.63;5097916;28;20192;-84
2022/03/09 08:38:25;;;;;;;42.80;29.10;;;;;;;1.30;57.96;92679.81;5094140;28;20266;-83
2022/03/09 08:40:50;;;;;;;39.60;29.07;;;;;;;1.36;59.40;92703.84;5094389;28;20189;-82
2022/03/09 08:43:17;;;;;;;40.20;30.77;;;;;;;1.50;57.22;92639.16;5096997;28;20819;-86
2022/03/09 08:45:43;;;;;;;37.83;30.17;;;;;;;1.79;55.82;92647.75;5091659;28;20197;-87
2022/03/09 08:48:09;;;;;;;35.17;26.80;;;;;;;1.75;56.42;92658.72;5074222;28;20258;-86
2022/03/09 08:50:34;;;;;;;34.67;28.00;;;;;;;1.02;56.14;92574.25;5094572;28;20235;-85
2022/03/09 08:53:01;;;;;;;39.20;29.17;;;;;;;1.64;57.20;92671.38;5099002;28;20224;-86
2022/03/09 08:55:27;;;;;;;41.07;28.47;;;;;;;2.22;55.59;92675.69;5096444;28;20972;-86
2022/03/09 08:57:52;;;;;;;39.80;28.80;;;;;;;2.25;57.05;92698.41;5096942;28;20228;-84
2022/03/09 09:00:18;;;;;;;37.27;30.60;;;;;;;2.21;56.65;92687.78;5094853;28;20183;-83
2022/03/09 09:02:43;;;;;;;41.10;28.10;;;;;;;2.29;56.32;92669.41;5094743;28;20263;-83
2022/03/09 09:05:09;;;;;;;35.43;26.87;;;;;;;1.99;56.60;92691.16;5098527;28;20192;-83
2022/03/09 09:07:35;;;;;;;35.33;27.77;;;;;;;2.11;55.81;92669.56;5091755;28;20235;-83
2022/03/09 09:10:00;;;;;;;38.67;28.33;;;;;;;1.45;58.37;92662.16;5095889;28;20208;-84
2022/03/09 09:12:26;;;;;;;34.73;28.60;;;;;;;1.46;58.31;92644.97;5094139;28;20280;-85
2022/03/09 09:14:51;;;;;;;41.70;29.93;;;;;;;1.33;60.12;92673.44;5079048;28;20257;-84
2022/03/09 09:17:17;;;;;;;38.47;28.73;;;;;;;1.08;59.69;92608.56;5095998;28;20291;-83
2022/03/09 09:19:42;;;;;;;37.17;28.90;;;;;;;1.48;59.50;92686.66;5094302;28;20237;-82
2022/03/09 09:22:08;;;;;;;38.63;30.50;;;;;;;1.50;57.90;92639.16;5097217;28;20253;-82
2022/03/09 09:24:33;;;;;;;40.50;30.03;;;;;;;1.29;57.06;92590.06;5091503;28;20191;-86
2022/03/09 09:26:59;;;;;;;38.70;27.53;;;;;;;2.03;58.75;92689.69;5096592;28;20188;-82
2022/03/09 09:29:24;;;;;;;39.03;27.73;;;;;;;1.69;57.06;92637.25;5094013;28;20212;-83
2022/03/09 09:31:50;;;;;;;39.00;28.97;;;;;;;1.43;58.68;92656.44;5095532;28;20228;-87
2022/03/09 09:34:16;;;;;;;36.53;27.53;;;;;;;1.68;59.64;92687.91;5095132;28;20244;-86
2022/03/09 09:36:45;;;;;;;34.70;27.93;;;;;;;1.59;60.31;92658.38;5094618;28;20188;-87
2022/03/09 09:39:15;;;;;;;36.17;28.83;;;;;;;1.16;61.25;92623.66;5100123;28;20230;-84
2022/03/09 09:41:43;;;;;;;36.03;28.53;;;;;;;0.57;62.16;92652.78;5097123;28;20253;-84
2022/03/09 09:44:13;;;;;;;39.03;27.90;;;;;;;1.13;61.64;92678.09;5098816;28;20227;-85
2022/03/09 09:46:40;;;;;;;37.33;28.20;;;;;;;1.79;59.29;92683.00;5095983;28;20220;-83
2022/03/09 09:49:09;;;;;;;37.00;28.63;;;;;;;1.55;59.46;92683.00;5097598;28;20227;-83
2022/03/09 09:51:37;;;;;;;33.97;25.53;;;;;;;1.48;60.62;92690.00;5099448;28;20253;-83
2022/03/09 09:54:04;;;;;;;34.43;27.57;;;;;;;1.36;60.88;92689.22;5094559;28;20215;-83
2022/03/09 09:56:30;;;;;;;46.93;28.60;;;;;;;1.59;60.36;92689.25;5097998;28;20265;-84
2022/03/09 09:58:56;;;;;;;36.80;27.20;;;;;;;1.70;59.34;92645.75;5096650;28;20232;-84
2022/03/09 10:01:22;;;;;;;32.47;24.57;;;;;;;2.05;59.25;92656.81;5099519;28;20177;-84
2022/03/09 10:03:47;;;;;;;28.07;22.43;;;;;;;1.74;58.46;92675.97;5095359;28;20786;-84
2022/03/09 10:06:12;;;;;;;35.03;26.97;;;;;;;1.73;59.74;92642.72;5098222;28;20192;-84
2022/03/09 10:08:39;;;;;;;33.97;24.80;;;;;;;1.90;58.83;92684.78;5100460;28;20235;-87
2022/03/09 10:11:05;;;;;;;35.00;27.23;;;;;;;2.34;57.07;92686.75;5096348;28;20232;-81
2022/03/09 10:13:35;;;;;;;32.03;25.57;;;;;;;2.25;56.61;92644.34;5097646;28;20698;-81
2022/03/09 10:16:16;;;;;;;31.70;25.30;;;;;;;1.84;60.26;92675.41;5095899;28;20185;-79
2022/03/09 10:18:56;;;;;;;35.03;25.77;;;;;;;2.02;56.97;92668.34;5099635;28;20227;-81
2022/03/09 10:21:28;;;;;;;32.77;26.43;;;;;;;1.75;59.25;92682.66;5097259;28;20188;-80
2022/03/09 10:23:59;;;;;;;31.77;25.63;;;;;;;1.11;60.42;92677.53;5097477;28;20217;-79
2022/03/09 10:26:44;;;;;;;30.10;24.93;;;;;;;1.03;60.48;92634.13;5100337;28;20188;-80
2022/03/09 10:29:18;;;;;;;32.60;26.87;;;;;;;1.32;61.25;92662.38;5096769;28;20307;-79
2022/03/09 10:31:45;;;;;;;31.10;25.20;;;;;;;1.28;61.63;92679.25;5078778;28;20192;-79
2022/03/09 10:34:24;;;;;;;27.57;23.23;;;;;;;0.99;60.00;92677.50;5097938;28;20244;-79
2022/03/09 10:36:56;;;;;;;28.73;24.30;;;;;;;0.51;62.00;92669.06;5098132;28;20370;-78
2022/03/09 10:39:24;;;;;;;26.03;22.93;;;;;;;0.27;62.36;92676.84;5101004;28;20200;-80
2022/03/09 10:41:50;;;;;;;24.67;22.03;;;;;;;0.62;60.90;92658.06;5095538;28;20233;-81
2022/03/09 10:44:15;;;;;;;30.30;23.93;;;;;;;1.12;61.15;92672.16;5100978;28;20613;-79
2022/03/09 10:46:48;;;;;;;26.30;23.47;;;;;;;1.17;59.80;92674.06;5096009;28;20208;-80
2022/03/09 10:49:16;;;;;;;32.17;24.83;;;;;;;1.23;63.51;92676.53;5095459;28;20239;-84
2022/03/09 10:51:44;;;;;;;24.03;20.27;;;;;;;1.14;59.11;92634.19;5099495;28;20192;-83
2022/03/09 10:54:23;;;;;;;21.93;19.73;;;;;;;1.28;58.55;92668.97;5094703;28;20220;-84
2022/03/09 10:56:50;;;;;;;28.53;23.67;;;;;;;0.99;61.72;92672.38;5099668;28;20222;-84
2022/03/09 10:59:16;;;;;;;28.57;23.13;;;;;;;1.28;61.34;92658.69;5094280;28;20224;-84
2022/03/09 11:01:43;;;;;;;22.17;19.93;;;;;;;1.07;60.05;92664.34;5098970;28;20214;-84
2022/03/09 11:04:19;;;;;;;23.23;20.93;;;;;;;0.84;57.98;92650.66;5095770;28;20288;-83
2022/03/09 11:06:48;;;;;;;23.37;20.93;;;;;;;1.08;60.54;92671.03;5077924;28;20220;-84
2022/03/09 11:09:18;;;;;;;23.40;20.90;;;;;;;1.17;58.59;92656.88;5097665;28;20254;-75
2022/03/09 11:11:46;;;;;;;22.23;19.47;;;;;;;0.60;60.01;92621.53;5095547;28;20181;-87
2022/03/09 11:14:13;;;;;;;21.37;19.23;;;;;;;1.18;59.88;92648.13;5099196;28;20227;-79
2022/03/09 11:16:40;;;;;;;20.17;18.17;;;;;;;1.00;57.25;92642.28;5097521;28;20187;-86
2022/03/09 11:19:06;;;;;;;19.93;17.80;;;;;;;0.76;54.43;92614.97;5097271;28;20223;-86